createdAt,value
2022-12-19T00:00:04.687Z,21.70
2022-12-19T00:01:04.707Z,23.30
2022-12-19T00:02:04.727Z,22.80
2022-12-19T00:03:04.775Z,25.70
2022-12-19T00:04:05.478Z,24.80
2022-12-19T00:05:04.662Z,22.50
2022-12-19T00:06:04.633Z,22.20
2022-12-19T00:07:04.617Z,25.50
2022-12-19T00:08:11.406Z,26.20
2022-12-19T00:09:05.620Z,24.50
2022-12-19T00:10:04.573Z,23.50
2022-12-19T00:11:04.598Z,24.20
2022-12-19T00:12:04.546Z,20.90
2022-12-19T00:13:04.557Z,20.60
2022-12-19T00:14:04.528Z,23.20
2022-12-19T00:15:04.523Z,22.40
2022-12-19T00:16:04.591Z,23.10
2022-12-19T00:17:04.536Z,22.90
2022-12-19T00:18:04.521Z,25.80
2022-12-19T00:19:04.486Z,20.30
2022-12-19T00:20:04.465Z,25.70
2022-12-19T00:21:04.456Z,24.20
2022-12-19T00:22:09.619Z,25.20
2022-12-19T00:23:05.445Z,24.40
2022-12-19T00:24:07.028Z,22.80
2022-12-19T00:25:05.429Z,24.70
2022-12-19T00:26:04.384Z,20.80
2022-12-19T00:27:04.420Z,17.10
2022-12-19T00:28:04.380Z,20.30
2022-12-19T00:29:04.367Z,19.40
2022-12-19T00:30:04.345Z,19.40
2022-12-19T00:31:04.350Z,19.60
2022-12-19T00:32:04.441Z,20.30
2022-12-19T00:33:04.310Z,17.70
2022-12-19T00:34:04.316Z,19.50
2022-12-19T00:35:04.289Z,18.30
2022-12-19T00:36:04.289Z,21.80
2022-12-19T00:37:04.285Z,20.80
2022-12-19T00:38:04.280Z,21.10
2022-12-19T00:39:07.688Z,19.40
2022-12-19T00:40:04.258Z,19.50
2022-12-19T00:41:04.225Z,19.70
2022-12-19T00:42:04.253Z,20.90
2022-12-19T00:43:04.203Z,20.80
2022-12-19T00:44:04.209Z,19.40
2022-12-19T00:45:04.176Z,19.40
2022-12-19T00:46:04.216Z,20.20
2022-12-19T00:47:04.175Z,20.90
2022-12-19T00:48:04.185Z,21.90
2022-12-19T00:49:04.134Z,19.40
2022-12-19T00:50:04.137Z,18.00
2022-12-19T00:51:04.111Z,19.60
2022-12-19T00:52:04.123Z,18.50
2022-12-19T00:53:04.098Z,18.90
2022-12-19T00:54:05.558Z,17.50
2022-12-19T00:55:05.036Z,18.40
2022-12-19T00:56:05.088Z,17.50
2022-12-19T00:57:04.061Z,20.40
2022-12-19T00:58:04.050Z,19.50
2022-12-19T00:59:04.014Z,18.60
2022-12-19T01:00:04.032Z,18.20
2022-12-19T01:01:04.024Z,18.00
2022-12-19T01:02:04.167Z,17.30
2022-12-19T01:03:04.033Z,16.00
2022-12-19T01:04:27.861Z,16.80
2022-12-19T01:05:04.969Z,18.00
2022-12-19T01:06:03.975Z,19.70
2022-12-19T01:07:03.968Z,19.70
2022-12-19T01:08:03.950Z,17.90
2022-12-19T01:09:03.930Z,18.80
2022-12-19T01:10:03.926Z,19.90
2022-12-19T01:11:03.897Z,20.20
2022-12-19T01:12:03.949Z,23.40
2022-12-19T01:13:03.890Z,24.00
2022-12-19T01:14:03.885Z,22.10
2022-12-19T01:15:05.184Z,18.50
2022-12-19T01:16:03.891Z,26.50
2022-12-19T01:17:03.831Z,21.70
2022-12-19T01:18:03.875Z,23.20
2022-12-19T01:19:03.792Z,20.40
2022-12-19T01:20:03.795Z,20.60
2022-12-19T01:21:03.774Z,20.20
2022-12-19T01:22:03.798Z,23.10
2022-12-19T01:23:03.745Z,20.50
2022-12-19T01:24:03.757Z,21.80
2022-12-19T01:25:03.726Z,19.70
2022-12-19T01:26:03.736Z,23.50
2022-12-19T01:27:03.704Z,24.70
2022-12-19T01:28:03.713Z,24.00
2022-12-19T01:29:03.692Z,25.90
2022-12-19T01:30:03.694Z,22.30
2022-12-19T01:31:03.662Z,24.60
2022-12-19T01:32:03.709Z,22.70
2022-12-19T01:33:03.655Z,21.50
2022-12-19T01:34:03.642Z,23.00
2022-12-19T01:35:03.612Z,19.60
2022-12-19T01:36:03.617Z,21.80
2022-12-19T01:37:03.592Z,22.30
2022-12-19T01:38:08.338Z,20.20
2022-12-19T01:39:04.569Z,20.30
2022-12-19T01:40:03.574Z,18.30
2022-12-19T01:41:03.543Z,21.80
2022-12-19T01:42:03.557Z,21.60
2022-12-19T01:43:03.547Z,20.00
2022-12-19T01:44:03.538Z,18.30
2022-12-19T01:45:03.496Z,20.10
2022-12-19T01:46:03.596Z,18.40
2022-12-19T01:47:03.482Z,19.50
2022-12-19T01:48:03.480Z,19.80
2022-12-19T01:49:03.463Z,23.20
2022-12-19T01:50:03.461Z,21.20
2022-12-19T01:51:03.437Z,19.10
2022-12-19T01:52:03.440Z,21.00
2022-12-19T01:53:03.409Z,18.50
2022-12-19T01:54:03.429Z,18.80
2022-12-19T01:55:03.391Z,21.80
2022-12-19T01:56:07.013Z,19.00
2022-12-19T01:57:03.335Z,19.70
2022-12-19T01:58:03.335Z,18.30
2022-12-19T01:59:06.327Z,19.60
2022-12-19T02:00:03.322Z,21.80
2022-12-19T02:01:03.346Z,24.70
2022-12-19T02:02:03.483Z,21.00
2022-12-19T02:03:03.312Z,20.90
2022-12-19T02:04:03.292Z,22.60
2022-12-19T02:05:03.260Z,20.70
2022-12-19T02:06:03.267Z,19.60
2022-12-19T02:07:07.487Z,20.10
2022-12-19T02:08:04.237Z,24.20
2022-12-19T02:09:03.201Z,20.70
2022-12-19T02:10:03.221Z,20.30
2022-12-19T02:11:03.187Z,22.30
2022-12-19T02:12:03.184Z,22.00
2022-12-19T02:13:03.164Z,20.80
2022-12-19T02:14:03.155Z,21.30
2022-12-19T02:15:03.615Z,21.60
2022-12-19T02:16:03.133Z,21.60
2022-12-19T02:17:03.130Z,23.10
2022-12-19T02:18:03.112Z,23.60
2022-12-19T02:19:03.102Z,21.10
2022-12-19T02:20:03.115Z,24.40
2022-12-19T02:21:03.075Z,19.80
2022-12-19T02:22:03.070Z,20.20
2022-12-19T02:23:03.050Z,20.90
2022-12-19T02:24:03.044Z,24.70
2022-12-19T02:25:03.040Z,22.40
2022-12-19T02:26:03.071Z,24.80
2022-12-19T02:27:02.997Z,22.70
2022-12-19T02:28:03.032Z,24.70
2022-12-19T02:29:03.015Z,25.30
2022-12-19T02:30:02.978Z,22.70
2022-12-19T02:31:08.940Z,22.20
2022-12-19T02:32:04.046Z,24.30
2022-12-19T02:33:02.939Z,22.40
2022-12-19T02:34:02.949Z,21.20
2022-12-19T02:35:02.930Z,17.60
2022-12-19T02:36:02.919Z,19.30
2022-12-19T02:37:02.944Z,17.10
2022-12-19T02:38:02.902Z,18.10
2022-12-19T02:39:02.871Z,17.70
2022-12-19T02:40:02.879Z,16.30
2022-12-19T02:41:02.860Z,17.50
2022-12-19T02:42:02.857Z,19.50
2022-12-19T02:43:02.844Z,20.90
2022-12-19T02:44:02.840Z,22.00
2022-12-19T02:45:02.810Z,24.80
2022-12-19T02:46:02.851Z,22.70
2022-12-19T02:47:02.783Z,23.30
2022-12-19T02:48:08.450Z,19.30
2022-12-19T02:49:03.769Z,20.80
2022-12-19T02:50:02.794Z,18.70
2022-12-19T02:51:02.755Z,17.60
2022-12-19T02:52:02.747Z,16.80
2022-12-19T02:53:02.744Z,18.60
2022-12-19T02:54:02.726Z,20.50
2022-12-19T02:55:02.704Z,22.30
2022-12-19T02:56:02.802Z,21.90
2022-12-19T02:57:02.698Z,22.60
2022-12-19T02:58:02.691Z,24.60
2022-12-19T02:59:02.656Z,24.80
2022-12-19T03:00:02.881Z,23.90
2022-12-19T03:01:02.672Z,22.40
2022-12-19T03:02:02.762Z,21.50
2022-12-19T03:03:02.689Z,21.00
2022-12-19T03:04:02.628Z,20.60
2022-12-19T03:05:02.594Z,21.70
2022-12-19T03:06:02.595Z,22.40
2022-12-19T03:07:02.565Z,24.70
2022-12-19T03:08:02.566Z,27.60
2022-12-19T03:09:02.564Z,26.90
2022-12-19T03:10:02.556Z,28.70
2022-12-19T03:11:02.608Z,28.40
2022-12-19T03:12:02.536Z,31.20
2022-12-19T03:13:02.510Z,28.60
2022-12-19T03:14:02.529Z,25.40
2022-12-19T03:15:02.488Z,26.90
2022-12-19T03:16:02.486Z,30.20
2022-12-19T03:17:02.501Z,27.70
2022-12-19T03:18:02.462Z,27.40
2022-12-19T03:19:02.448Z,25.80
2022-12-19T03:20:02.431Z,25.20
2022-12-19T03:21:02.416Z,28.60
2022-12-19T03:22:02.411Z,30.40
2022-12-19T03:23:02.390Z,25.30
2022-12-19T03:24:02.419Z,27.70
2022-12-19T03:25:02.381Z,26.70
2022-12-19T03:26:02.373Z,27.20
2022-12-19T03:27:02.363Z,29.80
2022-12-19T03:28:02.353Z,31.50
2022-12-19T03:29:02.335Z,32.70
2022-12-19T03:30:02.363Z,30.70
2022-12-19T03:31:02.373Z,32.10
2022-12-19T03:32:02.324Z,28.20
2022-12-19T03:33:02.283Z,28.40
2022-12-19T03:34:02.290Z,25.40
2022-12-19T03:35:02.277Z,28.00
2022-12-19T03:36:02.284Z,25.20
2022-12-19T03:37:02.232Z,27.40
2022-12-19T03:38:02.269Z,29.20
2022-12-19T03:39:02.216Z,29.40
2022-12-19T03:40:02.247Z,30.50
2022-12-19T03:41:02.191Z,30.20
2022-12-19T03:42:02.194Z,30.10
2022-12-19T03:43:02.168Z,25.30
2022-12-19T03:44:02.183Z,24.80
2022-12-19T03:45:02.166Z,27.60
2022-12-19T03:46:02.217Z,28.20
2022-12-19T03:47:02.128Z,28.10
2022-12-19T03:48:02.146Z,29.40
2022-12-19T03:49:02.102Z,29.00
2022-12-19T03:50:02.119Z,28.10
2022-12-19T03:51:02.096Z,27.80
2022-12-19T03:52:02.082Z,25.00
2022-12-19T03:53:02.064Z,26.00
2022-12-19T03:54:02.080Z,24.60
2022-12-19T03:55:02.040Z,24.90
2022-12-19T03:56:02.063Z,24.50
2022-12-19T03:57:02.021Z,25.50
2022-12-19T03:58:02.030Z,24.30
2022-12-19T03:59:01.989Z,27.60
2022-12-19T04:00:01.990Z,28.70
2022-12-19T04:01:02.102Z,25.90
2022-12-19T04:02:02.054Z,29.10
2022-12-19T04:03:02.010Z,29.10
2022-12-19T04:04:01.960Z,25.10
2022-12-19T04:05:01.946Z,24.50
2022-12-19T04:06:01.937Z,23.20
2022-12-19T04:07:01.897Z,25.10
2022-12-19T04:08:01.922Z,25.90
2022-12-19T04:09:01.880Z,23.40
2022-12-19T04:10:01.891Z,27.20
2022-12-19T04:11:01.852Z,22.60
2022-12-19T04:12:01.869Z,24.70
2022-12-19T04:13:01.830Z,24.00
2022-12-19T04:14:01.846Z,24.20
2022-12-19T04:15:01.811Z,22.90
2022-12-19T04:16:01.849Z,23.50
2022-12-19T04:17:01.786Z,23.60
2022-12-19T04:18:01.807Z,21.10
2022-12-19T04:19:01.769Z,19.20
2022-12-19T04:20:01.787Z,19.00
2022-12-19T04:21:01.740Z,20.70
2022-12-19T04:22:01.743Z,19.00
2022-12-19T04:23:01.720Z,18.90
2022-12-19T04:24:01.730Z,18.60
2022-12-19T04:25:01.706Z,20.20
2022-12-19T04:26:01.697Z,21.20
2022-12-19T04:27:01.674Z,26.40
2022-12-19T04:28:01.675Z,26.80
2022-12-19T04:29:01.659Z,24.50
2022-12-19T04:30:01.663Z,25.30
2022-12-19T04:31:01.669Z,23.00
2022-12-19T04:32:01.646Z,22.70
2022-12-19T04:33:01.607Z,22.60
2022-12-19T04:34:01.624Z,25.40
2022-12-19T04:35:01.591Z,25.40
2022-12-19T04:36:01.594Z,25.20
2022-12-19T04:37:01.563Z,26.10
2022-12-19T04:38:01.569Z,26.40
2022-12-19T04:39:01.557Z,27.70
2022-12-19T04:40:01.574Z,31.50
2022-12-19T04:41:01.519Z,28.30
2022-12-19T04:42:01.524Z,28.00
2022-12-19T04:43:01.501Z,25.40
2022-12-19T04:44:01.511Z,24.80
2022-12-19T04:45:01.478Z,24.20
2022-12-19T04:46:01.476Z,23.10
2022-12-19T04:47:01.452Z,28.60
2022-12-19T04:48:01.481Z,26.70
2022-12-19T04:49:01.463Z,26.20
2022-12-19T04:50:01.417Z,25.20
2022-12-19T04:51:01.417Z,27.00
2022-12-19T04:52:01.397Z,27.50
2022-12-19T04:53:01.397Z,28.00
2022-12-19T04:54:01.379Z,28.40
2022-12-19T04:55:01.382Z,29.10
2022-12-19T04:56:01.351Z,25.50
2022-12-19T04:57:01.358Z,26.80
2022-12-19T04:58:01.316Z,28.90
2022-12-19T04:59:01.346Z,26.40
2022-12-19T05:00:01.302Z,25.80
2022-12-19T05:01:01.312Z,27.80
2022-12-19T05:02:01.404Z,30.40
2022-12-19T05:03:01.564Z,25.70
2022-12-19T05:04:04.446Z,26.40
2022-12-19T05:05:01.258Z,25.70
2022-12-19T05:06:01.243Z,24.60
2022-12-19T05:07:01.237Z,26.10
2022-12-19T05:08:01.214Z,23.20
2022-12-19T05:09:01.233Z,23.40
2022-12-19T05:10:01.194Z,24.20
2022-12-19T05:11:01.207Z,23.20
2022-12-19T05:12:01.170Z,24.00
2022-12-19T05:13:01.177Z,27.60
2022-12-19T05:14:01.153Z,24.60
2022-12-19T05:15:01.148Z,27.10
2022-12-19T05:16:01.187Z,26.10
2022-12-19T05:17:01.619Z,24.70
2022-12-19T05:18:01.099Z,25.60
2022-12-19T05:19:01.117Z,25.90
2022-12-19T05:20:01.090Z,25.10
2022-12-19T05:21:01.079Z,21.40
2022-12-19T05:22:01.051Z,23.40
2022-12-19T05:23:04.992Z,22.80
2022-12-19T05:24:02.036Z,22.50
2022-12-19T05:25:01.035Z,22.70
2022-12-19T05:26:00.995Z,19.40
2022-12-19T05:27:01.007Z,21.70
2022-12-19T05:28:00.994Z,19.10
2022-12-19T05:29:01.006Z,20.20
2022-12-19T05:30:00.965Z,22.50
2022-12-19T05:31:01.034Z,19.80
2022-12-19T05:32:00.942Z,24.60
2022-12-19T05:33:00.944Z,21.70
2022-12-19T05:34:00.922Z,21.40
2022-12-19T05:35:00.915Z,23.30
2022-12-19T05:36:00.895Z,24.20
2022-12-19T05:37:00.896Z,21.00
2022-12-19T05:38:00.884Z,21.90
2022-12-19T05:39:00.902Z,20.70
2022-12-19T05:40:00.851Z,20.70
2022-12-19T05:41:00.855Z,19.10
2022-12-19T05:42:00.823Z,24.20
2022-12-19T05:43:00.832Z,20.30
2022-12-19T05:44:00.818Z,21.00
2022-12-19T05:45:00.803Z,20.80
2022-12-19T05:46:00.784Z,19.00
2022-12-19T05:47:00.815Z,21.40
2022-12-19T05:48:01.604Z,23.40
2022-12-19T05:49:00.767Z,23.50
2022-12-19T05:50:00.742Z,21.80
2022-12-19T05:51:00.735Z,23.90
2022-12-19T05:52:00.722Z,21.70
2022-12-19T05:53:00.721Z,22.10
2022-12-19T05:54:00.706Z,20.90
2022-12-19T05:55:00.702Z,20.00
2022-12-19T05:56:00.670Z,21.90
2022-12-19T05:57:00.679Z,21.50
2022-12-19T05:58:00.653Z,18.60
2022-12-19T05:59:00.650Z,20.10
2022-12-19T06:00:00.640Z,19.20
2022-12-19T06:01:00.930Z,20.60
2022-12-19T06:02:00.728Z,19.60
2022-12-19T06:03:00.789Z,22.10
2022-12-19T06:04:00.568Z,22.20
2022-12-19T06:05:00.583Z,20.10
2022-12-19T06:06:00.570Z,19.10
2022-12-19T06:07:00.568Z,19.80
2022-12-19T06:08:00.543Z,21.50
2022-12-19T06:09:00.541Z,21.20
2022-12-19T06:10:00.511Z,18.50
2022-12-19T06:11:00.531Z,23.20
2022-12-19T06:12:00.508Z,23.70
2022-12-19T06:13:00.492Z,20.20
2022-12-19T06:14:00.469Z,19.30
2022-12-19T06:15:00.476Z,19.00
2022-12-19T06:16:00.469Z,21.20
2022-12-19T06:17:00.465Z,23.00
2022-12-19T06:18:00.427Z,19.10
2022-12-19T06:19:00.420Z,22.30
2022-12-19T06:20:00.397Z,21.60
2022-12-19T06:21:00.395Z,18.50
2022-12-19T06:22:00.375Z,20.90
2022-12-19T06:23:00.397Z,23.70
2022-12-19T06:24:00.359Z,22.60
2022-12-19T06:25:00.385Z,20.10
2022-12-19T06:26:00.328Z,19.20
2022-12-19T06:27:00.337Z,19.00
2022-12-19T06:28:00.333Z,23.70
2022-12-19T06:29:00.323Z,21.10
2022-12-19T06:30:00.289Z,21.30
2022-12-19T06:31:00.290Z,20.60
2022-12-19T06:32:00.330Z,19.40
2022-12-19T06:33:00.278Z,20.30
2022-12-19T06:34:00.279Z,20.10
2022-12-19T06:35:04.600Z,18.10
2022-12-19T06:36:00.223Z,20.30
2022-12-19T06:37:04.027Z,18.00
2022-12-19T06:38:01.293Z,18.00
2022-12-19T06:39:00.215Z,19.60
2022-12-19T06:40:00.219Z,18.80
2022-12-19T06:41:00.176Z,18.20
2022-12-19T06:42:00.145Z,19.10
2022-12-19T06:43:00.186Z,17.60
2022-12-19T06:44:00.145Z,19.50
2022-12-19T06:45:00.157Z,18.90
2022-12-19T06:46:00.175Z,18.90
2022-12-19T06:47:00.122Z,19.50
2022-12-19T06:48:00.097Z,19.60
2022-12-19T06:49:00.100Z,18.20
2022-12-19T06:50:00.105Z,16.80
2022-12-19T06:51:00.081Z,17.80
2022-12-19T06:52:00.865Z,17.40
2022-12-19T06:53:00.045Z,16.80
2022-12-19T06:54:00.039Z,16.10
2022-12-19T06:55:00.026Z,18.50
2022-12-19T06:56:00.005Z,17.50
2022-12-19T06:56:59.994Z,19.00
2022-12-19T06:57:59.964Z,18.90
2022-12-19T06:58:59.975Z,19.20
2022-12-19T06:59:59.973Z,20.60
2022-12-19T07:00:59.999Z,23.30
2022-12-19T07:02:00.140Z,22.10
2022-12-19T07:03:00.016Z,20.10
2022-12-19T07:03:59.902Z,17.70
2022-12-19T07:04:59.903Z,18.90
2022-12-19T07:05:59.904Z,16.00
2022-12-19T07:06:59.902Z,17.30
2022-12-19T07:07:59.873Z,16.80
2022-12-19T07:08:59.868Z,18.20
2022-12-19T07:09:59.840Z,17.00
2022-12-19T07:10:59.995Z,17.80
2022-12-19T07:11:59.816Z,18.40
2022-12-19T07:12:59.825Z,16.90
2022-12-19T07:13:59.797Z,16.60
2022-12-19T07:14:59.807Z,17.70
2022-12-19T07:15:59.815Z,17.00
2022-12-19T07:16:59.801Z,15.60
2022-12-19T07:17:59.751Z,16.70
2022-12-19T07:18:59.771Z,15.70
2022-12-19T07:19:59.727Z,15.90
2022-12-19T07:20:59.727Z,17.10
2022-12-19T07:21:59.729Z,16.20
2022-12-19T07:22:59.705Z,18.20
2022-12-19T07:23:59.691Z,15.50
2022-12-19T07:24:59.713Z,15.50
2022-12-19T07:25:59.657Z,14.30
2022-12-19T07:26:59.677Z,16.50
2022-12-19T07:27:59.624Z,16.80
2022-12-19T07:28:59.641Z,14.80
2022-12-19T07:29:59.609Z,15.90
2022-12-19T07:30:59.616Z,16.00
2022-12-19T07:31:59.636Z,15.30
2022-12-19T07:32:59.600Z,15.40
2022-12-19T07:33:59.568Z,15.70
2022-12-19T07:34:59.567Z,17.10
2022-12-19T07:35:59.575Z,14.30
2022-12-19T07:36:59.572Z,18.10
2022-12-19T07:37:59.515Z,16.80
2022-12-19T07:38:59.534Z,16.30
2022-12-19T07:39:59.504Z,15.20
2022-12-19T07:40:59.498Z,14.70
2022-12-19T07:41:59.491Z,15.60
2022-12-19T07:42:59.489Z,17.00
2022-12-19T07:43:59.446Z,19.00
2022-12-19T07:44:59.459Z,14.80
2022-12-19T07:45:59.444Z,15.90
2022-12-19T07:46:59.464Z,19.60
2022-12-19T07:47:59.410Z,19.60
2022-12-19T07:48:59.444Z,19.80
2022-12-19T07:49:59.385Z,21.40
2022-12-19T07:50:59.387Z,22.70
2022-12-19T07:51:59.357Z,22.20
2022-12-19T07:52:59.385Z,20.50
2022-12-19T07:53:59.352Z,21.10
2022-12-19T07:54:59.351Z,22.10
2022-12-19T07:55:59.320Z,19.70
2022-12-19T07:56:59.325Z,22.40
2022-12-19T07:57:59.301Z,21.80
2022-12-19T07:58:59.316Z,23.10
2022-12-19T07:59:59.308Z,19.40
2022-12-19T08:00:59.316Z,18.10
2022-12-19T08:01:59.529Z,18.90
2022-12-19T08:02:59.348Z,19.20
2022-12-19T08:03:59.448Z,17.60
2022-12-19T08:04:59.256Z,18.40
2022-12-19T08:05:59.205Z,20.90
2022-12-19T08:06:59.210Z,19.20
2022-12-19T08:07:59.189Z,18.20
2022-12-19T08:08:59.205Z,18.80
2022-12-19T08:09:59.178Z,18.10
2022-12-19T08:10:59.165Z,18.20
2022-12-19T08:11:59.139Z,19.80
2022-12-19T08:12:59.149Z,19.30
2022-12-19T08:13:59.137Z,17.00
2022-12-19T08:14:59.149Z,18.70
2022-12-19T08:15:59.103Z,18.80
2022-12-19T08:18:00.103Z,19.20
2022-12-19T08:18:59.076Z,20.10
2022-12-19T08:19:59.072Z,17.80
2022-12-19T08:20:59.051Z,19.10
2022-12-19T08:21:59.030Z,17.60
2022-12-19T08:22:59.047Z,16.60
2022-12-19T08:23:58.994Z,18.90
2022-12-19T08:24:59.028Z,17.40
2022-12-19T08:25:58.981Z,19.50
2022-12-19T08:26:59.002Z,17.50
2022-12-19T08:27:58.958Z,16.60
2022-12-19T08:28:58.956Z,19.90
2022-12-19T08:29:58.966Z,19.30
2022-12-19T08:30:58.962Z,20.30
2022-12-19T08:31:58.918Z,21.10
2022-12-19T08:32:58.908Z,23.10
2022-12-19T08:33:58.903Z,24.10
2022-12-19T08:34:58.922Z,26.30
2022-12-19T08:35:58.880Z,23.20
2022-12-19T08:36:58.870Z,24.40
2022-12-19T08:37:58.848Z,22.10
2022-12-19T08:38:58.854Z,20.20
2022-12-19T08:39:58.844Z,20.40
2022-12-19T08:40:58.827Z,19.70
2022-12-19T08:41:58.801Z,18.60
2022-12-19T08:42:58.814Z,18.60
2022-12-19T08:43:58.781Z,18.00
2022-12-19T08:44:58.773Z,15.90
2022-12-19T08:45:58.814Z,16.20
2022-12-19T08:46:58.748Z,17.40
2022-12-19T08:47:58.734Z,18.30
2022-12-19T08:48:58.735Z,16.90
2022-12-19T08:49:58.723Z,17.60
2022-12-19T08:50:58.729Z,15.90
2022-12-19T08:51:58.711Z,16.80
2022-12-19T08:52:58.689Z,19.00
2022-12-19T08:53:58.659Z,18.50
2022-12-19T08:54:58.713Z,18.20
2022-12-19T08:55:58.640Z,18.10
2022-12-19T08:56:58.682Z,16.50
2022-12-19T08:57:58.620Z,16.80
2022-12-19T08:58:58.621Z,17.20
2022-12-19T08:59:58.593Z,14.60
2022-12-19T09:01:05.035Z,14.60
2022-12-19T09:01:59.824Z,15.70
2022-12-19T09:02:58.910Z,14.90
2022-12-19T09:05:17.191Z,13.10
2022-12-19T09:06:03.726Z,15.90
2022-12-19T09:06:06.965Z,15.70
2022-12-19T09:06:59.514Z,15.30
2022-12-19T09:07:58.536Z,17.50
2022-12-19T09:09:00.313Z,15.60
2022-12-19T09:09:59.449Z,16.70
2022-12-19T09:10:58.479Z,15.60
2022-12-19T09:11:58.480Z,16.90
2022-12-19T09:12:58.471Z,16.60
2022-12-19T09:13:58.456Z,15.30
2022-12-19T09:14:58.430Z,14.40
2022-12-19T09:15:58.430Z,14.60
2022-12-19T09:16:59.164Z,16.80
2022-12-19T09:17:58.430Z,15.60
2022-12-19T09:18:58.376Z,13.90
2022-12-19T09:19:58.386Z,14.30
2022-12-19T09:20:58.360Z,15.20
2022-12-19T09:21:58.378Z,15.60
2022-12-19T09:22:58.330Z,13.70
2022-12-19T09:24:05.329Z,16.10
2022-12-19T09:24:59.314Z,13.60
2022-12-19T09:25:58.314Z,17.40
2022-12-19T09:26:58.298Z,18.00
2022-12-19T09:28:59.279Z,15.40
2022-12-19T09:29:58.330Z,19.00
2022-12-19T09:30:58.324Z,14.80
2022-12-19T09:31:58.245Z,13.10
2022-12-19T09:32:58.216Z,14.00
2022-12-19T09:33:58.226Z,13.60
2022-12-19T09:34:58.208Z,14.10
2022-12-19T09:35:58.204Z,15.50
2022-12-19T09:36:58.166Z,13.50
2022-12-19T09:38:00.323Z,14.00
2022-12-19T09:38:58.148Z,14.00
2022-12-19T09:39:58.765Z,13.90
2022-12-19T09:40:58.141Z,14.30
2022-12-19T09:41:58.131Z,13.50
2022-12-19T09:42:58.106Z,14.40
2022-12-19T09:43:58.130Z,15.10
2022-12-19T09:44:58.097Z,13.50
2022-12-19T09:45:58.145Z,13.90
2022-12-19T09:46:58.074Z,13.60
2022-12-19T09:47:58.060Z,14.50
2022-12-19T09:48:58.038Z,14.00
2022-12-19T09:49:58.046Z,14.70
2022-12-19T09:50:58.578Z,15.50
2022-12-19T09:51:59.035Z,14.30
2022-12-19T09:52:57.993Z,16.00
2022-12-19T09:53:58.000Z,13.80
2022-12-19T09:54:57.975Z,13.00
2022-12-19T09:55:57.976Z,12.00
2022-12-19T09:56:57.996Z,13.80
2022-12-19T09:57:57.945Z,13.70
2022-12-19T09:58:57.929Z,14.90
2022-12-19T09:59:57.925Z,15.50
2022-12-19T10:01:00.231Z,14.40
2022-12-19T10:01:58.056Z,15.10
2022-12-19T10:02:58.100Z,15.40
2022-12-19T10:03:57.972Z,13.50
2022-12-19T10:04:59.272Z,12.60
2022-12-19T10:07:11.442Z,14.30
2022-12-19T10:07:21.995Z,13.70
2022-12-19T10:08:08.378Z,13.50
2022-12-19T10:11:20.837Z,12.40
2022-12-19T10:11:21.812Z,13.20
2022-12-19T10:12:38.645Z,13.10
2022-12-19T10:12:39.946Z,12.40
2022-12-19T10:13:00.105Z,14.30
2022-12-19T10:13:57.775Z,12.10
2022-12-19T10:14:57.735Z,14.10
2022-12-19T10:16:00.609Z,12.20
2022-12-19T10:17:23.008Z,13.20
2022-12-19T10:17:58.740Z,13.00
2022-12-19T10:18:57.711Z,12.90
2022-12-19T10:19:57.697Z,13.20
2022-12-19T10:20:57.670Z,14.10
2022-12-19T10:22:58.668Z,12.90
2022-12-19T10:23:57.732Z,15.30
2022-12-19T10:25:09.134Z,14.10
2022-12-19T10:25:58.638Z,14.30
2022-12-19T10:26:57.616Z,12.10
2022-12-19T10:28:00.180Z,13.10
2022-12-19T10:28:57.621Z,14.70
2022-12-19T10:29:57.588Z,15.50
2022-12-19T10:30:57.623Z,14.20
2022-12-19T10:31:57.720Z,13.30
2022-12-19T10:32:57.534Z,14.60
2022-12-19T10:33:57.579Z,14.30
2022-12-19T10:34:57.557Z,13.90
2022-12-19T10:36:02.086Z,14.20
2022-12-19T10:37:25.761Z,12.90
2022-12-19T10:37:58.493Z,13.60
2022-12-19T10:38:57.505Z,14.00
2022-12-19T10:39:57.489Z,15.00
2022-12-19T10:40:57.478Z,14.80
2022-12-19T10:41:57.459Z,14.20
2022-12-19T10:42:57.418Z,13.70
2022-12-19T10:43:57.445Z,16.10
2022-12-19T10:44:57.425Z,15.50
2022-12-19T10:45:57.439Z,15.20
2022-12-19T10:46:57.436Z,15.70
2022-12-19T10:47:57.376Z,16.30
2022-12-19T10:48:57.426Z,14.90
2022-12-19T10:49:57.368Z,15.30
2022-12-19T10:50:57.347Z,14.80
2022-12-19T10:51:57.375Z,15.10
2022-12-19T10:52:57.312Z,15.20
2022-12-19T10:53:57.402Z,13.20
2022-12-19T10:54:57.289Z,14.40
2022-12-19T10:55:57.340Z,12.60
2022-12-19T10:56:57.329Z,13.10
2022-12-19T10:57:57.280Z,13.50
2022-12-19T10:58:57.243Z,13.60
2022-12-19T10:59:57.291Z,17.20
2022-12-19T11:00:57.264Z,14.40
2022-12-19T11:02:01.222Z,13.70
2022-12-19T11:02:57.452Z,11.50
2022-12-19T11:03:57.266Z,14.30
2022-12-19T11:04:57.257Z,15.10
2022-12-19T11:05:58.021Z,16.10
2022-12-19T11:06:57.223Z,15.00
2022-12-19T11:07:57.186Z,15.20
2022-12-19T11:08:57.139Z,15.00
2022-12-19T11:10:41.918Z,13.20
2022-12-19T11:13:11.999Z,15.90
2022-12-19T11:14:30.992Z,13.70
2022-12-19T11:18:03.708Z,14.00
2022-12-19T11:19:45.318Z,15.10
2022-12-19T11:20:29.974Z,12.40
2022-12-19T11:21:44.183Z,14.10
2022-12-19T11:22:21.056Z,14.50
2022-12-19T11:27:18.407Z,13.50
2022-12-19T11:29:25.172Z,12.00
2022-12-19T11:29:26.878Z,13.40
2022-12-19T11:29:27.535Z,13.90
2022-12-19T11:29:30.011Z,15.60
2022-12-19T11:29:34.556Z,13.30
2022-12-19T11:29:36.670Z,14.30
2022-12-19T11:29:38.943Z,13.20
2022-12-19T11:30:46.078Z,12.20
2022-12-19T11:30:46.938Z,14.60
2022-12-19T11:30:47.268Z,13.10
2022-12-19T11:30:48.670Z,13.10
2022-12-19T11:31:50.906Z,13.40
2022-12-19T11:32:38.977Z,12.60
2022-12-19T11:32:57.924Z,13.40
2022-12-19T11:33:56.913Z,14.60
2022-12-19T11:34:56.846Z,13.20
2022-12-19T11:35:56.839Z,14.00
2022-12-19T11:36:56.817Z,13.90
2022-12-19T11:37:56.817Z,14.10
2022-12-19T11:38:56.788Z,15.70
2022-12-19T11:39:56.787Z,14.80
2022-12-19T11:40:56.788Z,15.70
2022-12-19T11:41:56.770Z,14.60
2022-12-19T11:43:41.548Z,15.80
2022-12-19T11:43:57.764Z,15.40
2022-12-19T11:44:56.730Z,14.80
2022-12-19T11:45:56.735Z,15.70
2022-12-19T11:46:56.735Z,14.30
2022-12-19T11:47:56.711Z,14.10
2022-12-19T11:48:56.718Z,15.00
2022-12-19T11:49:56.682Z,14.90
2022-12-19T11:50:56.677Z,14.30
2022-12-19T11:51:56.673Z,14.90
2022-12-19T11:53:05.968Z,14.20
2022-12-19T11:53:57.688Z,14.70
2022-12-19T11:54:56.597Z,13.10
2022-12-19T11:55:56.673Z,13.70
2022-12-19T11:56:56.596Z,14.50
2022-12-19T11:57:56.599Z,13.70
2022-12-19T11:58:56.564Z,13.90
2022-12-19T12:00:01.383Z,14.70
2022-12-19T12:00:57.542Z,16.30
2022-12-19T12:01:56.666Z,17.00
2022-12-19T12:02:56.600Z,16.70
2022-12-19T12:04:01.104Z,15.20
2022-12-19T12:04:57.569Z,16.20
2022-12-19T12:05:56.549Z,14.60
2022-12-19T12:06:56.533Z,16.50
2022-12-19T12:08:38.070Z,14.80
2022-12-19T12:10:39.729Z,15.80
2022-12-19T12:15:31.965Z,18.00
2022-12-19T12:16:06.770Z,15.90
2022-12-19T12:16:53.504Z,16.90
2022-12-19T12:20:21.147Z,17.40
2022-12-19T12:24:00.119Z,14.00
2022-12-19T12:24:25.110Z,14.40
2022-12-19T12:25:36.710Z,15.30
2022-12-19T12:30:23.411Z,14.90
2022-12-19T12:31:02.828Z,13.40
2022-12-19T12:31:07.463Z,12.60
2022-12-19T12:31:12.950Z,12.80
2022-12-19T12:31:16.284Z,14.60
2022-12-19T12:31:17.245Z,12.20
2022-12-19T12:31:25.893Z,12.90
2022-12-19T12:31:47.314Z,12.60
2022-12-19T12:31:47.732Z,12.40
2022-12-19T12:31:49.206Z,13.00
2022-12-19T12:31:53.905Z,13.60
2022-12-19T12:31:58.822Z,12.90
2022-12-19T12:35:09.296Z,13.30
2022-12-19T12:35:15.427Z,13.80
2022-12-19T12:35:19.208Z,13.10
2022-12-19T12:35:30.667Z,13.50
2022-12-19T12:35:32.683Z,13.30
2022-12-19T12:35:33.127Z,13.40
2022-12-19T12:35:57.122Z,12.10
2022-12-19T12:39:56.141Z,12.00
2022-12-19T12:40:56.097Z,13.70
2022-12-19T12:41:56.118Z,14.20
2022-12-19T12:42:56.100Z,14.00
2022-12-19T12:43:56.102Z,13.10
2022-12-19T12:44:56.054Z,13.00
2022-12-19T12:45:56.112Z,11.30
2022-12-19T12:46:56.046Z,12.40
2022-12-19T12:47:56.080Z,11.50
2022-12-19T12:48:56.005Z,11.90
2022-12-19T12:49:56.030Z,11.40
2022-12-19T12:50:56.001Z,12.30
2022-12-19T12:51:56.057Z,12.90
2022-12-19T12:52:55.997Z,11.80
2022-12-19T12:53:55.978Z,12.00
2022-12-19T12:54:55.957Z,11.80
2022-12-19T12:55:55.944Z,11.90
2022-12-19T12:56:55.929Z,12.80
2022-12-19T12:57:55.928Z,11.80
2022-12-19T12:58:55.928Z,11.20
2022-12-19T12:59:55.912Z,10.60